createdAt,value
2019-03-16T00:01:21.831Z,99683.95
2019-03-16T00:03:50.279Z,99691.22
2019-03-16T00:06:18.712Z,99681.89
2019-03-16T00:08:47.197Z,99683.30
2019-03-16T00:11:15.649Z,99692.34
2019-03-16T00:13:44.104Z,99698.20
2019-03-16T00:21:25.716Z,99696.70
2019-03-16T00:23:54.165Z,99699.50
2019-03-16T00:26:22.669Z,99711.13
2019-03-16T00:28:51.117Z,99700.44
2019-03-16T00:31:19.568Z,99697.89
2019-03-16T00:33:48.060Z,99699.69
2019-03-16T00:36:35.755Z,99699.94
2019-03-16T00:39:23.554Z,99706.42
2019-03-16T00:41:52.011Z,99705.16
2019-03-16T00:44:20.462Z,99710.67
2019-03-16T00:46:48.943Z,99713.76
2019-03-16T00:49:17.385Z,99708.83
2019-03-16T00:51:45.832Z,99705.16
2019-03-16T00:56:48.603Z,99713.33
2019-03-16T01:01:51.369Z,99712.33
2019-03-16T01:04:19.813Z,99718.05
2019-03-16T01:06:48.303Z,99725.32
2019-03-16T01:09:16.754Z,99719.92
2019-03-16T01:11:45.205Z,99717.19
2019-03-16T01:16:47.322Z,99713.33
2019-03-16T01:19:35.130Z,99717.00
2019-03-16T01:22:03.577Z,99710.63
2019-03-16T01:24:51.391Z,99712.07
2019-03-16T01:27:19.778Z,99711.02
2019-03-16T01:29:48.224Z,99719.41
2019-03-16T01:37:26.334Z,99715.74
2019-03-16T01:39:54.786Z,99704.83
2019-03-16T01:44:56.886Z,99716.46
2019-03-16T01:47:44.560Z,99722.01
2019-03-16T01:50:52.920Z,99717.26
2019-03-16T01:53:21.402Z,99717.75
2019-03-16T01:55:49.855Z,99715.99
2019-03-16T01:58:18.304Z,99712.86
2019-03-16T02:00:46.789Z,99714.09
2019-03-16T02:03:15.240Z,99710.55
2019-03-16T02:05:43.702Z,99721.14
2019-03-16T02:11:05.109Z,99718.16
2019-03-16T02:13:33.598Z,99724.27
2019-03-16T02:16:10.848Z,99728.39
2019-03-16T02:18:32.227Z,99720.59
2019-03-16T02:21:40.672Z,99731.19
2019-03-16T02:24:09.133Z,99724.95
2019-03-16T02:29:50.057Z,99726.38
2019-03-16T02:32:18.596Z,99719.22
2019-03-16T02:34:47.010Z,99724.80
2019-03-16T02:37:15.465Z,99720.41
2019-03-16T02:39:44.021Z,99720.47
2019-03-16T02:42:12.477Z,99724.47
2019-03-16T02:45:00.463Z,99720.73
2019-03-16T02:47:30.346Z,99730.86
2019-03-16T02:49:58.823Z,99733.52
2019-03-16T02:52:27.313Z,99729.58
2019-03-16T02:54:55.763Z,99732.31
2019-03-16T02:57:24.288Z,99723.46
2019-03-16T03:02:26.671Z,99729.66
2019-03-16T03:04:56.879Z,99728.73
2019-03-16T03:07:25.323Z,99728.08
2019-03-16T03:09:53.789Z,99731.39
2019-03-16T03:12:22.455Z,99726.79
2019-03-16T03:15:10.204Z,99730.27
2019-03-16T03:17:58.061Z,99730.78
2019-03-16T03:20:26.504Z,99724.66
2019-03-16T03:22:54.959Z,99728.73
2019-03-16T03:25:23.448Z,99726.14
2019-03-16T03:27:51.896Z,99727.68
2019-03-16T03:30:20.355Z,99730.27
2019-03-16T03:32:48.873Z,99731.06
2019-03-16T03:35:17.317Z,99731.60
2019-03-16T03:38:05.055Z,99734.64
2019-03-16T03:40:33.503Z,99738.66
2019-03-16T03:43:01.950Z,99736.06
2019-03-16T03:45:49.803Z,99737.33
2019-03-16T03:48:19.893Z,99739.30
2019-03-16T03:50:48.341Z,99734.67
2019-03-16T03:53:16.837Z,99732.80
2019-03-16T03:56:04.604Z,99732.33
2019-03-16T03:58:52.328Z,99725.20
2019-03-16T04:01:39.971Z,99724.95
2019-03-16T04:04:27.710Z,99723.80
2019-03-16T04:07:19.783Z,99731.58
2019-03-16T04:09:45.723Z,99733.20
2019-03-16T04:12:14.164Z,99724.81
2019-03-16T04:15:02.004Z,99734.85
2019-03-16T04:17:30.452Z,99728.67
2019-03-16T04:20:18.514Z,99731.73
2019-03-16T04:22:46.954Z,99735.25
2019-03-16T04:25:15.475Z,99741.45
2019-03-16T04:27:43.967Z,99738.92
2019-03-16T04:30:52.325Z,99755.49
2019-03-16T04:33:20.818Z,99752.52
2019-03-16T04:35:49.276Z,99749.05
2019-03-16T04:38:17.717Z,99745.27
2019-03-16T04:41:05.395Z,99762.28
2019-03-16T04:43:33.862Z,99752.52
2019-03-16T04:46:21.596Z,99763.81
2019-03-16T04:48:50.042Z,99767.61
2019-03-16T04:51:18.489Z,99765.74
2019-03-16T04:53:46.974Z,99761.64
2019-03-16T04:56:15.427Z,99771.75
2019-03-16T04:58:43.877Z,99760.36
2019-03-16T05:01:12.366Z,99771.81
2019-03-16T05:03:40.813Z,99760.31
2019-03-16T05:06:09.261Z,99775.48
2019-03-16T05:08:37.792Z,99766.90
2019-03-16T05:11:06.314Z,99777.20
2019-03-16T05:13:34.763Z,99784.14
2019-03-16T05:16:22.429Z,99767.69
2019-03-16T05:21:38.347Z,99778.20
2019-03-16T05:24:06.793Z,99770.16
2019-03-16T05:26:35.241Z,99770.03
2019-03-16T05:29:03.797Z,99796.19
2019-03-16T05:31:32.244Z,99761.55
2019-03-16T05:34:00.698Z,99779.81
2019-03-16T05:39:22.317Z,99771.75
2019-03-16T05:44:43.841Z,99784.73
2019-03-16T05:49:46.284Z,99787.47
2019-03-16T05:52:14.768Z,99805.77
2019-03-16T05:54:43.212Z,99812.84
2019-03-16T05:57:11.677Z,99812.36
2019-03-16T05:59:40.158Z,99816.30
2019-03-16T06:02:08.603Z,99807.64
2019-03-16T06:04:37.054Z,99818.36
2019-03-16T06:07:05.541Z,99815.50
2019-03-16T06:09:33.990Z,99827.28
2019-03-16T06:12:02.438Z,99825.86
2019-03-16T06:14:30.961Z,99823.75
2019-03-16T06:16:59.412Z,99812.13
2019-03-16T06:19:27.864Z,99815.56
2019-03-16T06:24:30.062Z,99819.09
2019-03-16T06:26:58.510Z,99818.50
2019-03-16T06:29:27.014Z,99816.32
2019-03-16T06:31:55.436Z,99824.63
2019-03-16T06:34:43.137Z,99822.59
2019-03-16T06:37:11.588Z,99831.52
2019-03-16T06:39:40.033Z,99839.70
2019-03-16T06:42:08.532Z,99842.13
2019-03-16T06:44:36.981Z,99837.31
2019-03-16T06:47:25.062Z,99843.37
2019-03-16T06:50:12.730Z,99845.25
2019-03-16T06:52:41.257Z,99847.72
2019-03-16T06:55:49.623Z,99844.56
2019-03-16T06:58:18.111Z,99847.32
2019-03-16T07:00:46.562Z,99848.16
2019-03-16T07:03:15.009Z,99856.15
2019-03-16T07:05:43.516Z,99864.67
2019-03-16T07:08:11.968Z,99865.66
2019-03-16T07:10:40.429Z,99864.43
2019-03-16T07:13:08.942Z,99859.75
2019-03-16T07:18:24.859Z,99878.30
2019-03-16T07:20:53.305Z,99872.79
2019-03-16T07:23:21.797Z,99875.73
2019-03-16T07:28:26.342Z,99881.25
2019-03-16T07:36:04.328Z,99879.33
2019-03-16T07:38:32.781Z,99888.77
2019-03-16T07:43:35.213Z,99885.69
2019-03-16T07:46:03.707Z,99891.10
2019-03-16T07:48:32.149Z,99890.78
2019-03-16T07:51:00.628Z,99899.55
2019-03-16T07:53:29.112Z,99886.63
2019-03-16T07:55:57.578Z,99891.71
2019-03-16T07:58:26.033Z,99897.91
2019-03-16T08:00:54.543Z,99888.56
2019-03-16T08:03:22.992Z,99896.89
2019-03-16T08:05:51.442Z,99896.16
2019-03-16T08:10:53.856Z,99893.23
2019-03-16T08:13:22.305Z,99902.23
2019-03-16T08:15:50.790Z,99903.97
2019-03-16T08:18:19.237Z,99901.03
2019-03-16T08:21:06.863Z,99900.80
2019-03-16T08:23:35.307Z,99899.90
2019-03-16T08:26:22.978Z,99895.50
2019-03-16T08:28:51.431Z,99890.36
2019-03-16T08:31:19.875Z,99896.49
2019-03-16T08:36:22.584Z,99897.55
2019-03-16T08:38:51.069Z,99906.33
2019-03-16T08:41:19.521Z,99899.88
2019-03-16T08:43:47.971Z,99889.69
2019-03-16T08:49:09.552Z,99887.08
2019-03-16T08:51:38.042Z,99877.86
2019-03-16T08:54:06.507Z,99881.80
2019-03-16T08:56:54.171Z,99881.08
2019-03-16T08:59:24.402Z,99877.43
2019-03-16T09:02:12.159Z,99877.22
2019-03-16T09:04:40.610Z,99884.36
2019-03-16T09:07:09.063Z,99883.76
2019-03-16T09:12:11.716Z,99894.63
2019-03-16T09:14:40.194Z,99892.81
2019-03-16T09:17:09.242Z,99895.69
2019-03-16T09:19:38.885Z,99897.42
2019-03-16T09:25:17.809Z,99902.89
2019-03-16T09:27:46.264Z,99905.11
2019-03-16T09:33:46.411Z,99900.47
2019-03-16T09:36:14.874Z,99899.22
2019-03-16T09:44:26.816Z,99911.26
2019-03-16T09:49:47.443Z,99899.80
2019-03-16T09:52:15.872Z,99905.80
2019-03-16T09:54:44.389Z,99907.36
2019-03-16T09:59:47.126Z,99912.00
2019-03-16T10:02:15.650Z,99898.20
2019-03-16T10:04:44.141Z,99903.87
2019-03-16T10:07:12.593Z,99896.31
2019-03-16T10:09:41.044Z,99892.67
2019-03-16T10:14:43.851Z,99887.10
2019-03-16T10:17:12.350Z,99876.75
2019-03-16T10:19:40.811Z,99877.81
2019-03-16T10:22:09.266Z,99880.09
2019-03-16T10:27:11.572Z,99873.75
2019-03-16T10:29:40.022Z,99862.17
2019-03-16T10:32:08.527Z,99856.09
2019-03-16T10:34:36.973Z,99853.27
2019-03-16T10:37:05.492Z,99859.23
2019-03-16T10:39:33.974Z,99864.81
2019-03-16T10:42:02.416Z,99858.28
2019-03-16T10:44:30.864Z,99857.58
2019-03-16T10:49:33.046Z,99853.24
2019-03-16T10:52:01.495Z,99847.80
2019-03-16T10:54:29.977Z,99849.91
2019-03-16T10:56:58.445Z,99838.45
2019-03-16T10:59:26.904Z,99852.39
2019-03-16T11:01:55.390Z,99843.06
2019-03-16T11:04:43.166Z,99836.48
2019-03-16T11:07:11.651Z,99844.47
2019-03-16T11:09:59.316Z,99836.32
2019-03-16T11:12:27.798Z,99840.70
2019-03-16T11:14:56.248Z,99835.60
2019-03-16T11:17:24.711Z,99831.02
2019-03-16T11:22:46.494Z,99816.25
2019-03-16T11:25:34.242Z,99820.25
2019-03-16T11:28:02.696Z,99819.98
2019-03-16T11:30:31.144Z,99821.56
2019-03-16T11:35:52.766Z,99820.23
2019-03-16T11:41:14.227Z,99813.01
2019-03-16T11:46:17.142Z,99814.34
2019-03-16T11:51:20.024Z,99818.37
2019-03-16T11:53:48.510Z,99808.86
2019-03-16T11:56:18.216Z,99814.67
2019-03-16T11:58:47.132Z,99809.02
2019-03-16T12:01:15.617Z,99795.52
2019-03-16T12:03:44.070Z,99800.55
2019-03-16T12:09:00.008Z,99805.72
2019-03-16T12:11:28.456Z,99808.88
2019-03-16T12:13:56.909Z,99819.91
2019-03-16T12:16:25.390Z,99801.17
2019-03-16T12:18:53.854Z,99807.59
2019-03-16T12:21:22.297Z,99806.89
2019-03-16T12:23:50.804Z,99789.70
2019-03-16T12:26:20.302Z,99801.96
2019-03-16T12:28:49.494Z,99803.59
2019-03-16T12:31:18.022Z,99813.78
2019-03-16T12:33:46.469Z,99809.20
2019-03-16T12:36:14.917Z,99812.84
2019-03-16T12:38:43.397Z,99807.40
2019-03-16T12:41:11.853Z,99796.00
2019-03-16T12:43:59.603Z,99797.13
2019-03-16T12:46:28.055Z,99804.84
2019-03-16T12:48:56.509Z,99804.27
2019-03-16T12:51:25.011Z,99801.93
2019-03-16T12:53:53.461Z,99791.23
2019-03-16T12:56:21.909Z,99797.92
2019-03-16T12:58:50.390Z,99802.31
2019-03-16T13:01:18.842Z,99792.30
2019-03-16T13:03:50.141Z,99794.27
2019-03-16T13:06:19.090Z,99784.75
2019-03-16T13:08:47.725Z,99791.39
2019-03-16T13:11:35.406Z,99795.87
2019-03-16T13:17:11.951Z,99793.66
2019-03-16T13:19:59.649Z,99786.91
2019-03-16T13:22:28.165Z,99791.73
2019-03-16T13:25:15.803Z,99782.47
2019-03-16T13:27:44.298Z,99778.39
2019-03-16T13:30:32.085Z,99768.48
2019-03-16T13:33:00.575Z,99772.87
2019-03-16T13:35:29.022Z,99769.01
2019-03-16T13:37:57.471Z,99769.27
2019-03-16T13:40:25.991Z,99761.75
2019-03-16T13:42:54.430Z,99763.34
2019-03-16T13:45:22.878Z,99759.63
2019-03-16T13:47:52.017Z,99743.19
2019-03-16T13:51:01.484Z,99759.57
2019-03-16T13:56:22.787Z,99749.04
2019-03-16T13:58:53.026Z,99741.79
2019-03-16T14:01:21.472Z,99749.77
2019-03-16T14:03:56.898Z,99743.04
2019-03-16T14:08:59.002Z,99728.06
2019-03-16T14:11:27.451Z,99725.98
2019-03-16T14:13:55.999Z,99745.73
2019-03-16T14:16:24.441Z,99733.86
2019-03-16T14:19:13.931Z,99731.87
2019-03-16T14:22:03.354Z,99728.46
2019-03-16T14:24:31.844Z,99713.16
2019-03-16T14:27:02.015Z,99713.16
2019-03-16T14:29:30.473Z,99712.48
2019-03-16T14:31:58.952Z,99715.94
2019-03-16T14:34:27.404Z,99699.76
2019-03-16T14:36:57.383Z,99704.58
2019-03-16T14:42:00.260Z,99709.34
2019-03-16T14:47:02.404Z,99703.75
2019-03-16T14:49:30.876Z,99696.09
2019-03-16T14:54:33.766Z,99696.44
2019-03-16T14:57:02.279Z,99691.30
2019-03-16T14:59:30.717Z,99691.98
2019-03-16T15:01:59.165Z,99681.65
2019-03-16T15:04:46.958Z,99689.31
2019-03-16T15:07:15.406Z,99681.83
2019-03-16T15:09:43.853Z,99679.17
2019-03-16T15:12:12.336Z,99673.94
2019-03-16T15:15:20.746Z,99669.37
2019-03-16T15:17:49.183Z,99674.48
2019-03-16T15:20:36.951Z,99663.33
2019-03-16T15:23:05.514Z,99656.13
2019-03-16T15:25:33.964Z,99648.75
2019-03-16T15:28:21.692Z,99652.24
2019-03-16T15:30:51.234Z,99656.20
2019-03-16T15:36:32.534Z,99648.31
2019-03-16T15:39:01.020Z,99654.71
2019-03-16T15:41:29.465Z,99651.62
2019-03-16T15:43:57.922Z,99652.92
2019-03-16T15:46:26.424Z,99643.43
2019-03-16T15:48:54.877Z,99641.95
2019-03-16T15:51:24.178Z,99637.05
2019-03-16T15:56:27.948Z,99634.39
2019-03-16T15:58:57.688Z,99632.91
2019-03-16T16:01:26.137Z,99627.97
2019-03-16T16:03:54.588Z,99631.50
2019-03-16T16:08:56.754Z,99630.17
2019-03-16T16:11:25.205Z,99626.36
2019-03-16T16:16:27.983Z,99623.27
2019-03-16T16:21:30.143Z,99616.23
2019-03-16T16:23:58.589Z,99604.98
2019-03-16T16:26:27.093Z,99609.16
2019-03-16T16:28:55.545Z,99606.56
2019-03-16T16:31:24.002Z,99601.02
2019-03-16T16:36:26.678Z,99596.80
2019-03-16T16:38:55.130Z,99589.77
2019-03-16T16:41:25.646Z,99589.97
2019-03-16T16:46:47.513Z,99578.94
2019-03-16T16:49:15.994Z,99578.94
2019-03-16T16:51:44.442Z,99587.70
2019-03-16T16:54:12.897Z,99584.26
2019-03-16T16:56:41.412Z,99574.53
2019-03-16T16:59:09.875Z,99578.46
2019-03-16T17:01:38.324Z,99580.41
2019-03-16T17:04:26.036Z,99572.59
2019-03-16T17:07:13.740Z,99571.24
2019-03-16T17:10:01.638Z,99571.28
2019-03-16T17:12:30.168Z,99570.73
2019-03-16T17:14:58.610Z,99567.73
2019-03-16T17:17:35.252Z,99570.08
2019-03-16T17:19:57.280Z,99570.40
2019-03-16T17:25:53.224Z,99564.45
2019-03-16T17:28:21.676Z,99550.50
2019-03-16T17:30:50.192Z,99554.12
2019-03-16T17:35:52.540Z,99549.89
2019-03-16T17:38:20.988Z,99541.06
2019-03-16T17:40:49.493Z,99548.75
2019-03-16T17:43:17.941Z,99547.73
2019-03-16T17:45:46.389Z,99541.59
2019-03-16T17:50:48.949Z,99539.45
2019-03-16T17:53:17.431Z,99530.38
2019-03-16T17:58:34.988Z,99508.19
2019-03-16T18:01:03.528Z,99520.87
2019-03-16T18:03:31.997Z,99513.61
2019-03-16T18:06:19.585Z,99519.38
2019-03-16T18:08:48.033Z,99510.70
2019-03-16T18:11:16.503Z,99509.94
2019-03-16T18:13:45.008Z,99502.70
2019-03-16T18:16:32.779Z,99501.30
2019-03-16T18:19:01.297Z,99501.70
2019-03-16T18:21:29.762Z,99499.05
2019-03-16T18:24:17.577Z,99498.61
2019-03-16T18:26:46.050Z,99500.47
2019-03-16T18:29:14.495Z,99498.94
2019-03-16T18:34:16.565Z,99498.47
2019-03-16T18:36:45.025Z,99492.86
2019-03-16T18:39:13.509Z,99495.41
2019-03-16T18:41:41.959Z,99498.32
2019-03-16T18:44:10.406Z,99492.39
2019-03-16T18:46:38.885Z,99490.27
2019-03-16T18:49:07.335Z,99498.05
2019-03-16T18:51:35.795Z,99476.39
2019-03-16T18:56:57.354Z,99479.38
2019-03-16T18:59:25.912Z,99478.04
2019-03-16T19:01:54.360Z,99481.37
2019-03-16T19:04:22.815Z,99477.44
2019-03-16T19:06:51.303Z,99479.73
2019-03-16T19:09:19.745Z,99480.37
2019-03-16T19:11:48.211Z,99472.52
2019-03-16T19:14:16.699Z,99477.20
2019-03-16T19:16:45.142Z,99473.69
2019-03-16T19:19:13.590Z,99473.45
2019-03-16T19:21:42.089Z,99474.31
2019-03-16T19:24:10.542Z,99472.05
2019-03-16T19:26:38.993Z,99468.47
2019-03-16T19:29:26.830Z,99465.37
2019-03-16T19:31:55.306Z,99466.10
2019-03-16T19:34:43.024Z,99466.65
2019-03-16T19:37:11.467Z,99471.69
2019-03-16T19:39:39.952Z,99464.78
2019-03-16T19:42:08.424Z,99467.78
2019-03-16T19:44:36.869Z,99453.83
2019-03-16T19:47:24.675Z,99442.35
2019-03-16T19:49:53.153Z,99446.20
2019-03-16T19:52:21.669Z,99439.33
2019-03-16T19:58:03.188Z,99439.45
2019-03-16T20:00:31.678Z,99436.92
2019-03-16T20:03:00.202Z,99424.72
2019-03-16T20:05:48.034Z,99421.42
2019-03-16T20:08:16.487Z,99417.51
2019-03-16T20:10:44.948Z,99417.14
2019-03-16T20:13:13.429Z,99423.91
2019-03-16T20:15:43.939Z,99413.88
2019-03-16T20:18:31.482Z,99408.64
2019-03-16T20:20:59.932Z,99407.59
2019-03-16T20:23:28.392Z,99403.47
2019-03-16T20:28:31.264Z,99404.55
2019-03-16T20:30:59.713Z,99405.67
2019-03-16T20:33:28.196Z,99407.09
2019-03-16T20:35:56.641Z,99409.19
2019-03-16T20:38:25.158Z,99409.91
2019-03-16T20:40:53.643Z,99406.53
2019-03-16T20:43:41.621Z,99405.01
2019-03-16T20:46:11.648Z,99406.89
2019-03-16T20:48:40.096Z,99406.55
2019-03-16T20:51:08.551Z,99401.08
2019-03-16T20:53:37.023Z,99399.77
2019-03-16T20:56:24.814Z,99392.36
2019-03-16T21:01:27.805Z,99385.23
2019-03-16T21:03:57.872Z,99385.17
2019-03-16T21:06:26.323Z,99375.93
2019-03-16T21:09:03.080Z,99375.64
2019-03-16T21:11:24.967Z,99367.48
2019-03-16T21:13:53.412Z,99370.15
2019-03-16T21:16:21.859Z,99367.23
2019-03-16T21:21:24.547Z,99363.72
2019-03-16T21:23:53.028Z,99362.92
2019-03-16T21:26:21.508Z,99354.63
2019-03-16T21:28:49.914Z,99353.58
2019-03-16T21:31:37.584Z,99341.70
2019-03-16T21:34:25.354Z,99344.42
2019-03-16T21:36:53.825Z,99342.42
2019-03-16T21:39:22.275Z,99342.11
2019-03-16T21:41:50.721Z,99329.96
2019-03-16T21:44:19.200Z,99330.95
2019-03-16T21:46:47.648Z,99330.36
2019-03-16T21:52:03.582Z,99332.42
2019-03-16T21:54:32.027Z,99333.05
2019-03-16T21:57:00.530Z,99330.12
2019-03-16T21:59:29.100Z,99327.16
2019-03-16T22:01:57.535Z,99313.98
2019-03-16T22:04:25.981Z,99316.13
2019-03-16T22:07:13.654Z,99309.37
2019-03-16T22:09:42.095Z,99309.00
2019-03-16T22:12:29.948Z,99295.69
2019-03-16T22:14:58.392Z,99300.28
2019-03-16T22:17:26.846Z,99297.94
2019-03-16T22:19:55.320Z,99297.36
2019-03-16T22:22:23.765Z,99289.96
2019-03-16T22:25:11.665Z,99284.14
2019-03-16T22:27:40.107Z,99285.11
2019-03-16T22:30:48.497Z,99287.69
2019-03-16T22:33:16.944Z,99282.36
2019-03-16T22:35:45.382Z,99274.83
2019-03-16T22:38:33.222Z,99276.42
2019-03-16T22:41:01.663Z,99260.06
2019-03-16T22:43:30.120Z,99254.70
2019-03-16T22:45:58.623Z,99263.72
2019-03-16T22:48:46.198Z,99250.02
2019-03-16T22:53:48.466Z,99240.51
2019-03-16T22:56:16.959Z,99242.16
2019-03-16T22:58:45.478Z,99241.97
2019-03-16T23:01:33.180Z,99245.56
2019-03-16T23:04:20.820Z,99239.89
2019-03-16T23:06:49.342Z,99237.95
2019-03-16T23:09:36.991Z,99232.47
2019-03-16T23:14:59.076Z,99222.02
2019-03-16T23:20:01.473Z,99218.94
2019-03-16T23:22:49.220Z,99214.72
2019-03-16T23:25:17.684Z,99208.33
2019-03-16T23:27:46.207Z,99206.54
2019-03-16T23:30:33.938Z,99205.89
2019-03-16T23:33:21.579Z,99200.06
2019-03-16T23:35:50.079Z,99200.52
2019-03-16T23:38:18.528Z,99195.89
2019-03-16T23:40:47.058Z,99191.23
2019-03-16T23:45:49.924Z,99180.69
2019-03-16T23:48:18.429Z,99172.00
2019-03-16T23:50:46.875Z,99169.45
2019-03-16T23:53:15.330Z,99167.73
2019-03-16T23:58:36.942Z,99154.78
